createdAt,value
2018-05-01T00:01:54.728Z,16.97
2018-05-01T00:04:21.051Z,17.01
2018-05-01T00:06:47.331Z,16.94
2018-05-01T00:09:13.571Z,16.96
2018-05-01T00:11:39.877Z,16.98
2018-05-01T00:14:06.155Z,16.94
2018-05-01T00:16:32.426Z,16.90
2018-05-01T00:18:58.902Z,16.87
2018-05-01T00:21:25.118Z,16.96
2018-05-01T00:23:51.402Z,16.95
2018-05-01T00:26:17.699Z,16.97
2018-05-01T00:28:43.910Z,17.00
2018-05-01T00:31:10.234Z,16.95
2018-05-01T00:33:36.510Z,16.89
2018-05-01T00:36:02.750Z,16.86
2018-05-01T00:38:29.177Z,16.80
2018-05-01T00:40:55.434Z,16.78
2018-05-01T00:43:21.650Z,16.77
2018-05-01T00:45:47.930Z,16.74
2018-05-01T00:48:14.231Z,16.69
2018-05-01T00:50:40.635Z,16.68
2018-05-01T00:53:06.914Z,16.62
2018-05-01T00:55:33.163Z,16.73
2018-05-01T00:57:59.519Z,16.83
2018-05-01T01:00:25.778Z,16.89
2018-05-01T01:02:52.133Z,16.85
2018-05-01T01:05:18.435Z,16.70
2018-05-01T01:07:44.678Z,16.74
2018-05-01T01:10:11.155Z,16.78
2018-05-01T01:12:37.474Z,16.76
2018-05-01T01:15:03.734Z,16.86
2018-05-01T01:17:29.975Z,16.86
2018-05-01T01:19:56.290Z,16.90
2018-05-01T01:22:22.773Z,16.90
2018-05-01T01:24:49.039Z,17.00
2018-05-01T01:27:15.330Z,16.93
2018-05-01T01:29:41.682Z,16.88
2018-05-01T01:32:13.929Z,16.80
2018-05-01T01:34:40.339Z,16.91
2018-05-01T01:37:06.328Z,16.85
2018-05-01T01:39:32.381Z,16.86
2018-05-01T01:41:58.528Z,16.76
2018-05-01T01:44:24.546Z,16.68
2018-05-01T01:46:50.575Z,16.60
2018-05-01T01:49:16.770Z,16.56
2018-05-01T01:51:42.811Z,16.57
2018-05-01T01:54:08.821Z,16.51
2018-05-01T01:56:35.011Z,16.47
2018-05-01T01:59:01.010Z,16.37
2018-05-01T02:01:27.017Z,16.42
2018-05-01T02:03:53.171Z,16.41
2018-05-01T02:06:19.187Z,16.44
2018-05-01T02:08:45.178Z,16.52
2018-05-01T02:11:11.340Z,16.56
2018-05-01T02:13:37.426Z,16.50
2018-05-01T02:16:03.417Z,16.42
2018-05-01T02:18:29.523Z,16.42
2018-05-01T02:20:55.567Z,16.35
2018-05-01T02:23:21.559Z,16.39
2018-05-01T02:25:47.692Z,16.43
2018-05-01T02:28:13.710Z,16.28
2018-05-01T02:30:39.734Z,16.22
2018-05-01T02:33:05.758Z,16.13
2018-05-01T02:35:31.753Z,16.16
2018-05-01T02:37:57.764Z,16.08
2018-05-01T02:40:23.806Z,16.11
2018-05-01T02:42:49.912Z,16.09
2018-05-01T02:45:15.907Z,16.02
2018-05-01T02:47:41.919Z,15.96
2018-05-01T02:50:07.936Z,15.99
2018-05-01T02:52:33.926Z,15.91
2018-05-01T02:55:00.002Z,15.97
2018-05-01T02:57:25.991Z,15.94
2018-05-01T02:59:51.986Z,15.90
2018-05-01T03:02:18.069Z,15.97
2018-05-01T03:04:44.091Z,15.94
2018-05-01T03:07:10.226Z,15.86
2018-05-01T03:09:36.226Z,15.89
2018-05-01T03:12:02.222Z,15.88
2018-05-01T03:14:28.347Z,15.87
2018-05-01T03:16:54.371Z,15.84
2018-05-01T03:19:20.391Z,15.81
2018-05-01T03:21:46.461Z,15.84
2018-05-01T03:24:12.477Z,15.79
2018-05-01T03:26:38.594Z,15.81
2018-05-01T03:29:04.669Z,15.81
2018-05-01T03:31:30.718Z,15.77
2018-05-01T03:33:56.721Z,15.76
2018-05-01T03:36:22.824Z,15.74
2018-05-01T03:38:48.866Z,15.75
2018-05-01T03:41:14.856Z,15.65
2018-05-01T03:43:41.067Z,15.63
2018-05-01T03:46:07.081Z,15.59
2018-05-01T03:48:33.070Z,15.61
2018-05-01T03:50:59.241Z,15.49
2018-05-01T03:53:25.226Z,15.45
2018-05-01T03:55:51.253Z,15.50
2018-05-01T03:58:17.390Z,15.55
2018-05-01T04:00:43.386Z,15.57
2018-05-01T04:03:09.434Z,15.67
2018-05-01T04:05:35.593Z,15.71
2018-05-01T04:08:01.618Z,15.65
2018-05-01T04:10:27.687Z,15.61
2018-05-01T04:12:53.782Z,15.58
2018-05-01T04:15:19.800Z,15.60
2018-05-01T04:17:45.863Z,15.59
2018-05-01T04:20:11.945Z,15.55
2018-05-01T04:22:38.002Z,15.65
2018-05-01T04:25:04.027Z,15.70
2018-05-01T04:27:30.082Z,15.71
2018-05-01T04:29:56.071Z,15.76
2018-05-01T04:32:22.115Z,15.64
2018-05-01T04:34:48.143Z,15.62
2018-05-01T04:37:14.226Z,15.64
2018-05-01T04:39:40.237Z,15.72
2018-05-01T04:42:06.266Z,15.69
2018-05-01T04:44:32.282Z,15.76
2018-05-01T04:46:58.270Z,15.67
2018-05-01T04:49:24.262Z,15.64
2018-05-01T04:51:50.278Z,15.64
2018-05-01T04:54:16.332Z,15.61
2018-05-01T04:56:42.335Z,15.58
2018-05-01T04:59:08.434Z,15.62
2018-05-01T05:01:34.437Z,15.64
2018-05-01T05:04:00.447Z,15.60
2018-05-01T05:06:26.505Z,15.41
2018-05-01T05:08:52.514Z,15.48
2018-05-01T05:11:18.514Z,15.63
2018-05-01T05:13:44.515Z,15.46
2018-05-01T05:16:10.522Z,15.48
2018-05-01T05:18:36.515Z,15.55
2018-05-01T05:21:02.542Z,15.46
2018-05-01T05:23:28.540Z,15.30
2018-05-01T05:25:54.563Z,15.45
2018-05-01T05:28:20.602Z,15.32
2018-05-01T05:30:46.589Z,15.38
2018-05-01T05:33:12.659Z,15.50
2018-05-01T05:35:38.641Z,15.31
2018-05-01T05:38:04.623Z,15.36
2018-05-01T05:40:30.642Z,15.26
2018-05-01T05:42:56.755Z,15.16
2018-05-01T05:45:22.802Z,15.27
2018-05-01T05:47:48.789Z,15.48
2018-05-01T05:50:14.787Z,15.55
2018-05-01T05:52:40.828Z,15.34
2018-05-01T05:55:06.836Z,15.49
2018-05-01T05:57:32.854Z,15.38
2018-05-01T05:59:58.935Z,15.37
2018-05-01T06:02:24.950Z,15.39
2018-05-01T06:04:50.958Z,15.40
2018-05-01T06:07:17.034Z,15.51
2018-05-01T06:09:43.062Z,15.43
2018-05-01T06:12:09.102Z,15.37
2018-05-01T06:14:35.219Z,15.53
2018-05-01T06:17:01.247Z,15.47
2018-05-01T06:19:27.249Z,15.55
2018-05-01T06:21:53.427Z,15.59
2018-05-01T06:24:19.430Z,15.43
2018-05-01T06:26:45.527Z,15.47
2018-05-01T06:29:11.642Z,15.59
2018-05-01T06:31:37.646Z,15.38
2018-05-01T06:34:03.635Z,15.31
2018-05-01T06:36:29.911Z,15.34
2018-05-01T06:38:55.907Z,15.27
2018-05-01T06:41:22.003Z,15.14
2018-05-01T06:43:48.169Z,15.15
2018-05-01T06:46:14.159Z,15.25
2018-05-01T06:48:40.210Z,15.36
2018-05-01T06:51:06.315Z,15.41
2018-05-01T06:53:32.373Z,15.30
2018-05-01T06:55:58.423Z,15.32
2018-05-01T06:58:24.502Z,15.35
2018-05-01T07:00:50.571Z,15.41
2018-05-01T07:03:16.669Z,15.52
2018-05-01T07:05:42.663Z,15.63
2018-05-01T07:08:08.683Z,15.63
2018-05-01T07:10:34.761Z,15.72
2018-05-01T07:13:00.781Z,15.83
2018-05-01T07:15:26.767Z,15.82
2018-05-01T07:17:52.766Z,15.67
2018-05-01T07:20:18.785Z,15.76
2018-05-01T07:22:44.774Z,15.75
2018-05-01T07:25:10.902Z,15.60
2018-05-01T07:27:36.925Z,15.41
2018-05-01T07:30:02.917Z,15.32
2018-05-01T07:32:28.958Z,15.48
2018-05-01T07:34:54.963Z,15.47
2018-05-01T07:37:20.986Z,15.44
2018-05-01T07:39:46.982Z,15.42
2018-05-01T07:42:13.037Z,15.25
2018-05-01T07:44:39.046Z,15.26
2018-05-01T07:47:05.166Z,15.25
2018-05-01T07:49:31.194Z,15.10
2018-05-01T07:51:57.223Z,15.40
2018-05-01T07:54:23.476Z,15.29
2018-05-01T07:56:49.497Z,15.20
2018-05-01T07:59:15.497Z,15.09
2018-05-01T08:01:41.636Z,15.24
2018-05-01T08:04:07.727Z,15.02
2018-05-01T08:06:33.762Z,14.92
2018-05-01T08:09:00.022Z,15.00
2018-05-01T08:11:26.006Z,14.84
2018-05-01T08:13:52.043Z,14.83
2018-05-01T08:16:18.178Z,14.84
2018-05-01T08:18:44.248Z,14.69
2018-05-01T08:21:10.214Z,14.95
2018-05-01T08:23:36.307Z,15.18
2018-05-01T08:26:02.364Z,15.10
2018-05-01T08:28:28.465Z,15.20
2018-05-01T08:30:54.542Z,15.41
2018-05-01T08:33:20.679Z,15.17
2018-05-01T08:35:46.735Z,14.97
2018-05-01T08:38:12.809Z,15.04
2018-05-01T08:40:38.795Z,15.19
2018-05-01T08:43:04.782Z,15.24
2018-05-01T08:45:30.893Z,15.22
2018-05-01T08:47:56.899Z,15.22
2018-05-01T08:50:22.923Z,15.35
2018-05-01T08:52:48.938Z,15.37
2018-05-01T08:55:14.928Z,15.43
2018-05-01T08:57:41.131Z,15.87
2018-05-01T09:00:07.142Z,16.02
2018-05-01T09:02:33.199Z,16.08
2018-05-01T09:04:59.179Z,16.14
2018-05-01T09:07:25.321Z,15.99
2018-05-01T09:09:51.323Z,16.01
2018-05-01T09:12:17.470Z,16.05
2018-05-01T09:14:43.527Z,16.13
2018-05-01T09:17:09.615Z,16.27
2018-05-01T09:19:35.761Z,16.35
2018-05-01T09:22:01.894Z,16.67
2018-05-01T09:24:28.129Z,16.55
2018-05-01T09:26:54.474Z,16.70
2018-05-01T09:29:20.478Z,16.50
2018-05-01T09:31:46.478Z,16.33
2018-05-01T09:34:12.634Z,16.53
2018-05-01T09:36:38.757Z,16.67
2018-05-01T09:39:04.777Z,16.78
2018-05-01T09:41:30.878Z,16.69
2018-05-01T09:43:57.019Z,16.74
2018-05-01T09:46:23.070Z,16.58
2018-05-01T09:48:49.142Z,16.39
2018-05-01T09:51:15.189Z,16.20
2018-05-01T09:53:41.451Z,15.95
2018-05-01T09:56:07.775Z,16.29
2018-05-01T09:58:34.114Z,16.63
2018-05-01T10:01:00.474Z,16.99
2018-05-01T10:03:26.784Z,17.27
2018-05-01T10:05:53.031Z,17.57
2018-05-01T10:08:19.316Z,18.37
2018-05-01T10:10:45.667Z,19.83
2018-05-01T10:13:11.975Z,20.38
2018-05-01T10:15:38.382Z,20.70
2018-05-01T10:18:04.690Z,21.26
2018-05-01T10:20:31.038Z,21.18
2018-05-01T10:22:57.383Z,20.79
2018-05-01T10:25:23.790Z,19.86
2018-05-01T10:27:50.191Z,19.08
2018-05-01T10:30:16.443Z,18.96
2018-05-01T10:32:42.899Z,19.24
2018-05-01T10:35:09.267Z,19.82
2018-05-01T10:37:35.556Z,20.56
2018-05-01T10:40:01.911Z,20.88
2018-05-01T10:42:28.153Z,20.82
2018-05-01T10:44:54.607Z,20.00
2018-05-01T10:47:20.863Z,19.66
2018-05-01T10:49:47.200Z,19.65
2018-05-01T10:52:15.519Z,20.94
2018-05-01T10:54:41.963Z,21.31
2018-05-01T10:57:08.223Z,22.24
2018-05-01T10:59:34.502Z,22.77
2018-05-01T11:02:00.878Z,22.81
2018-05-01T11:04:27.203Z,23.91
2018-05-01T11:06:53.557Z,22.83
2018-05-01T11:09:19.851Z,23.13
2018-05-01T11:11:46.104Z,23.37
2018-05-01T11:14:12.662Z,24.05
2018-05-01T11:16:38.883Z,23.38
2018-05-01T11:19:05.198Z,21.42
2018-05-01T11:21:31.532Z,20.80
2018-05-01T11:23:57.779Z,20.32
2018-05-01T11:26:24.064Z,19.82
2018-05-01T11:28:50.639Z,19.85
2018-05-01T11:31:16.890Z,19.58
2018-05-01T11:33:43.287Z,19.23
2018-05-01T11:36:09.506Z,19.34
2018-05-01T11:38:35.936Z,19.70
2018-05-01T11:41:02.286Z,20.22
2018-05-01T11:43:28.590Z,20.36
2018-05-01T11:45:55.142Z,20.53
2018-05-01T11:48:21.457Z,20.52
2018-05-01T11:50:47.776Z,21.82
2018-05-01T11:53:14.102Z,21.49
2018-05-01T11:55:40.430Z,21.44
2018-05-01T11:58:06.899Z,21.65
2018-05-01T12:00:33.127Z,21.23
2018-05-01T12:02:59.459Z,20.92
2018-05-01T12:05:25.879Z,21.80
2018-05-01T12:07:52.123Z,22.04
2018-05-01T12:10:18.558Z,22.25
2018-05-01T12:12:44.982Z,22.22
2018-05-01T12:15:11.289Z,24.29
2018-05-01T12:17:37.702Z,24.51
2018-05-01T12:20:03.954Z,23.59
2018-05-01T12:22:30.214Z,23.95
2018-05-01T12:24:56.429Z,24.96
2018-05-01T12:27:22.745Z,25.99
2018-05-01T12:29:49.081Z,26.04
2018-05-01T12:32:15.361Z,25.65
2018-05-01T12:34:41.695Z,25.63
2018-05-01T12:37:08.000Z,25.96
2018-05-01T12:39:34.227Z,25.75
2018-05-01T12:42:00.698Z,25.75
2018-05-01T12:44:26.951Z,26.56
2018-05-01T12:46:53.252Z,26.54
2018-05-01T12:49:19.622Z,25.85
2018-05-01T12:51:45.902Z,27.23
2018-05-01T12:54:12.240Z,28.31
2018-05-01T12:56:38.577Z,28.01
2018-05-01T12:59:04.883Z,28.91
2018-05-01T13:01:31.282Z,28.18
2018-05-01T13:03:57.501Z,28.21
2018-05-01T13:06:23.844Z,27.14
2018-05-01T13:08:50.325Z,26.14
2018-05-01T13:11:16.658Z,25.43
2018-05-01T13:13:44.010Z,24.72
2018-05-01T13:16:10.238Z,24.96
2018-05-01T13:18:36.785Z,25.46
2018-05-01T13:21:03.219Z,25.84
2018-05-01T13:23:29.596Z,26.37
2018-05-01T13:25:55.841Z,26.04
2018-05-01T13:28:22.085Z,25.34
2018-05-01T13:30:48.453Z,25.72
2018-05-01T13:33:14.849Z,25.27
2018-05-01T13:35:41.092Z,25.22
2018-05-01T13:38:07.411Z,24.97
2018-05-01T13:40:33.755Z,25.58
2018-05-01T13:43:00.000Z,25.99
2018-05-01T13:45:26.534Z,25.88
2018-05-01T13:47:52.778Z,25.24
2018-05-01T13:50:19.052Z,26.72
2018-05-01T13:52:45.350Z,26.64
2018-05-01T13:55:11.608Z,26.76
2018-05-01T13:57:38.127Z,27.41
2018-05-01T14:00:04.458Z,27.85
2018-05-01T14:02:30.828Z,27.08
2018-05-01T14:04:57.101Z,27.33
2018-05-01T14:07:23.342Z,27.28
2018-05-01T14:09:49.725Z,27.45
2018-05-01T14:12:16.034Z,27.16
2018-05-01T14:14:42.374Z,28.04
2018-05-01T14:17:08.626Z,27.70
2018-05-01T14:19:35.191Z,27.14
2018-05-01T14:22:01.882Z,27.15
2018-05-01T14:24:28.173Z,27.39
2018-05-01T14:26:54.480Z,28.34
2018-05-01T14:29:20.707Z,27.46
2018-05-01T14:31:47.029Z,28.14
2018-05-01T14:34:13.515Z,27.49
2018-05-01T14:36:39.978Z,26.21
2018-05-01T14:39:06.238Z,26.48
2018-05-01T14:41:32.511Z,27.29
2018-05-01T14:43:58.877Z,26.55
2018-05-01T14:46:25.426Z,26.97
2018-05-01T14:48:51.773Z,26.72
2018-05-01T14:51:18.051Z,26.86
2018-05-01T14:53:44.638Z,27.02
2018-05-01T14:56:11.154Z,27.53
2018-05-01T14:58:37.471Z,26.93
2018-05-01T15:01:03.830Z,26.39
2018-05-01T15:03:30.148Z,26.00
2018-05-01T15:05:56.477Z,26.28
2018-05-01T15:08:22.877Z,26.63
2018-05-01T15:10:49.118Z,26.84
2018-05-01T15:13:15.490Z,26.27
2018-05-01T15:15:41.903Z,26.09
2018-05-01T15:18:08.310Z,25.20
2018-05-01T15:20:34.655Z,25.04
2018-05-01T15:23:01.023Z,24.93
2018-05-01T15:25:27.413Z,24.61
2018-05-01T15:27:53.706Z,24.29
2018-05-01T15:30:20.103Z,24.13
2018-05-01T15:32:46.307Z,23.39
2018-05-01T15:35:12.522Z,23.04
2018-05-01T15:37:38.966Z,23.26
2018-05-01T15:40:05.217Z,22.66
2018-05-01T15:42:31.543Z,21.79
2018-05-01T15:44:57.879Z,21.23
2018-05-01T15:47:24.186Z,20.76
2018-05-01T15:49:50.585Z,20.00
2018-05-01T15:52:16.946Z,19.70
2018-05-01T15:54:43.267Z,19.52
2018-05-01T15:57:09.718Z,19.30
2018-05-01T15:59:35.994Z,19.11
2018-05-01T16:02:02.308Z,18.64
2018-05-01T16:04:28.642Z,18.22
2018-05-01T16:06:54.902Z,18.26
2018-05-01T16:09:21.415Z,18.13
2018-05-01T16:11:47.627Z,18.10
2018-05-01T16:14:14.023Z,17.73
2018-05-01T16:16:40.385Z,17.91
2018-05-01T16:19:06.640Z,18.11
2018-05-01T16:21:32.998Z,17.73
2018-05-01T16:23:59.365Z,17.51
2018-05-01T16:26:25.627Z,17.54
2018-05-01T16:28:51.913Z,17.61
2018-05-01T16:31:18.216Z,17.56
2018-05-01T16:33:44.596Z,17.68
2018-05-01T16:36:10.918Z,17.84
2018-05-01T16:38:37.166Z,17.83
2018-05-01T16:41:03.650Z,17.83
2018-05-01T16:43:29.898Z,17.75
2018-05-01T16:45:56.313Z,17.82
2018-05-01T16:48:22.595Z,17.73
2018-05-01T16:50:48.846Z,17.32
2018-05-01T16:53:15.390Z,17.55
2018-05-01T16:55:41.696Z,17.59
2018-05-01T16:58:07.994Z,17.52
2018-05-01T17:00:34.351Z,17.48
2018-05-01T17:03:00.583Z,17.61
2018-05-01T17:05:26.903Z,17.75
2018-05-01T17:07:53.177Z,17.61
2018-05-01T17:10:19.461Z,17.71
2018-05-01T17:12:45.783Z,17.96
2018-05-01T17:15:12.110Z,17.98
2018-05-01T17:17:38.350Z,17.90
2018-05-01T17:20:04.688Z,17.74
2018-05-01T17:22:31.510Z,17.91
2018-05-01T17:24:57.963Z,17.98
2018-05-01T17:27:24.235Z,17.83
2018-05-01T17:29:50.525Z,17.86
2018-05-01T17:32:16.859Z,17.87
2018-05-01T17:34:43.075Z,17.79
2018-05-01T17:37:09.577Z,17.56
2018-05-01T17:39:36.294Z,17.60
2018-05-01T17:42:03.435Z,17.53
2018-05-01T17:44:29.922Z,17.52
2018-05-01T17:46:56.180Z,17.51
2018-05-01T17:49:22.426Z,17.45
2018-05-01T17:51:49.005Z,17.54
2018-05-01T17:54:15.453Z,17.43
2018-05-01T17:56:41.929Z,17.34
2018-05-01T17:59:08.290Z,17.24
2018-05-01T18:01:34.518Z,17.26
2018-05-01T18:04:01.088Z,17.26
2018-05-01T18:06:27.611Z,17.17
2018-05-01T18:08:54.379Z,17.12
2018-05-01T18:11:20.632Z,17.15
2018-05-01T18:13:46.876Z,17.05
2018-05-01T18:16:13.302Z,16.92
2018-05-01T18:18:39.750Z,16.87
2018-05-01T18:21:06.315Z,16.81
2018-05-01T18:23:32.594Z,16.85
2018-05-01T18:25:58.904Z,16.78
2018-05-01T18:28:25.338Z,16.70
2018-05-01T18:30:51.762Z,16.65
2018-05-01T18:33:18.333Z,16.57
2018-05-01T18:35:44.615Z,16.58
2018-05-01T18:38:10.900Z,16.54
2018-05-01T18:40:37.273Z,16.52
2018-05-01T18:43:03.758Z,16.44
2018-05-01T18:45:30.483Z,16.39
2018-05-01T18:47:57.034Z,16.34
2018-05-01T18:50:23.372Z,16.23
2018-05-01T18:52:49.683Z,16.24
2018-05-01T18:55:17.054Z,16.25
2018-05-01T18:57:43.632Z,16.34
2018-05-01T19:00:10.028Z,16.33
2018-05-01T19:02:36.667Z,16.35
2018-05-01T19:05:04.308Z,16.31
2018-05-01T19:07:30.863Z,16.29
2018-05-01T19:09:57.186Z,16.21
2018-05-01T19:12:23.761Z,16.13
2018-05-01T19:14:50.051Z,16.05
2018-05-01T19:17:16.345Z,16.02
2018-05-01T19:19:42.937Z,15.95
2018-05-01T19:22:09.250Z,15.89
2018-05-01T19:24:35.694Z,15.82
2018-05-01T19:27:01.962Z,15.69
2018-05-01T19:29:28.238Z,15.52
2018-05-01T19:31:54.779Z,15.44
2018-05-01T19:34:21.057Z,15.41
2018-05-01T19:36:47.422Z,15.34
2018-05-01T19:39:13.761Z,15.30
2018-05-01T19:41:40.016Z,15.26
2018-05-01T19:44:06.586Z,15.23
2018-05-01T19:46:32.824Z,15.14
2018-05-01T19:48:59.130Z,15.10
2018-05-01T19:51:25.547Z,15.02
2018-05-01T19:53:51.770Z,14.93
2018-05-01T19:56:18.375Z,14.81
2018-05-01T19:58:44.642Z,14.72
2018-05-01T20:01:10.878Z,14.66
2018-05-01T20:03:37.546Z,14.60
2018-05-01T20:06:03.866Z,14.57
2018-05-01T20:08:30.500Z,14.49
2018-05-01T20:10:56.734Z,14.44
2018-05-01T20:13:22.937Z,14.38
2018-05-01T20:15:49.294Z,14.34
2018-05-01T20:18:15.555Z,14.27
2018-05-01T20:20:42.034Z,14.10
2018-05-01T20:23:08.314Z,14.03
2018-05-01T20:25:34.546Z,13.98
2018-05-01T20:28:01.070Z,13.94
2018-05-01T20:30:27.346Z,13.91
2018-05-01T20:32:53.831Z,13.86
2018-05-01T20:35:20.327Z,13.83
2018-05-01T20:37:46.558Z,13.76
2018-05-01T20:40:13.174Z,13.71
2018-05-01T20:42:39.405Z,13.65
2018-05-01T20:45:05.906Z,13.59
2018-05-01T20:47:32.199Z,13.54
2018-05-01T20:49:58.430Z,13.55
2018-05-01T20:52:25.002Z,13.51
2018-05-01T20:54:51.217Z,13.39
2018-05-01T20:57:17.652Z,13.34
2018-05-01T20:59:43.947Z,13.28
2018-05-01T21:02:10.174Z,13.25
2018-05-01T21:04:36.802Z,13.21
2018-05-01T21:07:03.042Z,13.19
2018-05-01T21:09:29.434Z,13.14
2018-05-01T21:11:55.711Z,13.10
2018-05-01T21:14:21.926Z,13.08
2018-05-01T21:16:48.620Z,13.08
2018-05-01T21:19:14.893Z,13.07
2018-05-01T21:21:41.207Z,13.04
2018-05-01T21:24:07.558Z,13.02
2018-05-01T21:26:33.809Z,12.98
2018-05-01T21:29:00.430Z,12.95
2018-05-01T21:31:26.683Z,12.91
2018-05-01T21:33:52.942Z,12.90
2018-05-01T21:36:19.434Z,12.84
2018-05-01T21:38:45.659Z,12.72
2018-05-01T21:41:12.221Z,12.66
2018-05-01T21:43:38.536Z,12.64
2018-05-01T21:46:04.810Z,12.66
2018-05-01T21:48:31.287Z,12.62
2018-05-01T21:50:57.511Z,12.57
2018-05-01T21:53:24.031Z,12.54
2018-05-01T21:55:50.270Z,12.52
2018-05-01T21:58:16.571Z,12.50
2018-05-01T22:00:43.152Z,12.46
2018-05-01T22:03:09.390Z,12.44
2018-05-01T22:05:35.889Z,12.40
2018-05-01T22:08:02.167Z,12.43
2018-05-01T22:10:28.523Z,12.45
2018-05-01T22:12:55.046Z,12.40
2018-05-01T22:15:21.274Z,12.42
2018-05-01T22:17:47.766Z,12.43
2018-05-01T22:20:14.018Z,12.36
2018-05-01T22:22:40.280Z,12.30
2018-05-01T22:25:06.910Z,12.28
2018-05-01T22:27:33.220Z,12.21
2018-05-01T22:29:59.632Z,12.17
2018-05-01T22:32:25.986Z,12.12
2018-05-01T22:34:52.311Z,12.09
2018-05-01T22:37:18.842Z,12.09
2018-05-01T22:39:45.672Z,12.07
2018-05-01T22:42:12.220Z,12.03
2018-05-01T22:44:38.521Z,11.98
2018-05-01T22:47:04.826Z,11.97
2018-05-01T22:49:31.273Z,11.93
2018-05-01T22:51:57.529Z,11.88
2018-05-01T22:54:24.048Z,11.80
2018-05-01T22:56:50.331Z,11.80
2018-05-01T22:59:16.585Z,11.78
2018-05-01T23:01:43.140Z,11.75
2018-05-01T23:04:09.423Z,11.72
2018-05-01T23:06:35.910Z,11.69
2018-05-01T23:09:02.298Z,11.67
2018-05-01T23:11:28.527Z,11.62
2018-05-01T23:13:55.157Z,11.55
2018-05-01T23:16:21.386Z,11.44
2018-05-01T23:18:47.806Z,11.36
2018-05-01T23:21:14.094Z,11.32
2018-05-01T23:23:40.385Z,11.27
2018-05-01T23:26:07.030Z,11.21
2018-05-01T23:28:33.279Z,11.16
2018-05-01T23:30:59.637Z,11.11
2018-05-01T23:33:25.934Z,11.08
2018-05-01T23:35:52.299Z,11.05
2018-05-01T23:38:18.917Z,10.98
2018-05-01T23:40:45.204Z,10.92
2018-05-01T23:43:11.609Z,10.93
2018-05-01T23:45:37.899Z,10.91
2018-05-01T23:48:04.209Z,10.91
2018-05-01T23:50:30.814Z,10.89
2018-05-01T23:52:57.074Z,10.86
2018-05-01T23:55:23.429Z,10.81
2018-05-01T23:57:49.833Z,10.76
